createdAt,value
2016-11-18T00:00:10.423Z,55.7
2016-11-18T00:10:10.453Z,56.2
2016-11-18T00:20:10.441Z,55.7
2016-11-18T00:30:00.999Z,55.7
2016-11-18T00:40:07.533Z,55.7
2016-11-18T00:50:10.442Z,55.1
2016-11-18T01:00:02.139Z,55.7
2016-11-18T01:10:02.145Z,55.7
2016-11-18T01:20:01.013Z,56.2
2016-11-18T01:30:02.151Z,55.7
2016-11-18T01:40:10.398Z,55.1
2016-11-18T01:50:10.408Z,55.1
2016-11-18T02:00:10.400Z,55.7
2016-11-18T02:10:01.120Z,55.7
2016-11-18T02:20:10.425Z,55.7
2016-11-18T02:30:10.421Z,55.7
2016-11-18T02:40:10.396Z,55.1
2016-11-18T02:50:10.428Z,55.7
2016-11-18T03:00:01.557Z,55.7
2016-11-18T03:10:10.431Z,55.1
2016-11-18T03:20:10.419Z,55.1
2016-11-18T03:30:10.419Z,55.1
2016-11-18T03:40:01.146Z,55.7
2016-11-18T03:50:10.406Z,55.7
2016-11-18T04:00:10.417Z,55.1
2016-11-18T04:10:02.128Z,55.1
2016-11-18T04:20:02.126Z,55.1
2016-11-18T04:30:01.165Z,55.7
2016-11-18T04:40:02.127Z,55.1
2016-11-18T04:50:10.434Z,55.1
2016-11-18T05:00:10.457Z,55.1
2016-11-18T05:10:10.442Z,55.1
2016-11-18T05:20:01.188Z,55.1
2016-11-18T05:30:02.137Z,54.6
2016-11-18T05:40:10.424Z,55.1
2016-11-18T05:50:10.416Z,54.6
2016-11-18T06:00:10.417Z,54.1
2016-11-18T06:10:10.408Z,54.1
2016-11-18T06:20:10.421Z,54.1
2016-11-18T06:30:01.406Z,54.1
2016-11-18T06:40:03.646Z,54.1
2016-11-18T06:50:01.261Z,54.1
2016-11-18T07:00:07.415Z,54.1
2016-11-18T07:10:10.417Z,54.1
2016-11-18T07:20:02.139Z,54.1
2016-11-18T07:30:02.127Z,53.5
2016-11-18T07:40:01.294Z,53
2016-11-18T07:50:10.397Z,53.5
2016-11-18T08:00:10.417Z,53.5
2016-11-18T08:10:10.421Z,53
2016-11-18T08:20:10.423Z,53.5
2016-11-18T08:30:01.410Z,53
2016-11-18T08:40:10.394Z,53
2016-11-18T08:50:10.435Z,53
2016-11-18T09:00:10.434Z,53
2016-11-18T09:10:01.391Z,53.5
2016-11-18T09:20:10.425Z,53
2016-11-18T09:30:10.429Z,53
2016-11-18T09:40:02.133Z,53.5
2016-11-18T09:50:02.130Z,53.5
2016-11-18T10:00:01.432Z,53.5
2016-11-18T10:10:09.745Z,53.5
2016-11-18T10:20:10.432Z,53.5
2016-11-18T10:30:10.418Z,53.5
2016-11-18T10:40:10.417Z,53.5
2016-11-18T10:50:01.403Z,54.1
2016-11-18T11:00:02.155Z,53.5
2016-11-18T11:10:10.421Z,53
2016-11-18T11:20:10.434Z,53.5
2016-11-18T11:30:10.437Z,53.5
2016-11-18T11:40:01.624Z,54.1
2016-11-18T11:50:10.435Z,54.1
2016-11-18T12:00:00.430Z,54.1
2016-11-18T12:10:02.886Z,53.5
2016-11-18T12:20:01.516Z,54.1
2016-11-18T12:30:05.485Z,54.1
2016-11-18T12:40:10.422Z,53.5
2016-11-18T12:50:02.136Z,54.1
2016-11-18T13:00:02.127Z,53.5
2016-11-18T13:10:01.574Z,53.5
2016-11-18T13:20:10.179Z,53
2016-11-18T13:30:10.420Z,53
2016-11-18T13:40:10.411Z,53.5
2016-11-18T13:50:10.420Z,53
2016-11-18T14:00:01.639Z,53
2016-11-18T14:10:10.424Z,53
2016-11-18T14:20:10.451Z,53.5
2016-11-18T14:30:10.436Z,53
2016-11-18T14:40:00.669Z,53.5
2016-11-18T14:50:02.136Z,53.5
2016-11-18T15:00:02.156Z,53
2016-11-18T15:10:02.139Z,53.5
2016-11-18T15:20:02.124Z,53
2016-11-18T15:30:01.673Z,53
2016-11-18T15:40:10.418Z,53.5
2016-11-18T15:50:10.427Z,53
2016-11-18T16:00:01.702Z,53.5
2016-11-18T16:10:10.426Z,53
2016-11-18T16:20:10.402Z,53
2016-11-18T16:30:10.448Z,53.5
2016-11-18T16:40:10.422Z,53
2016-11-18T16:50:10.412Z,53.5
2016-11-18T17:00:10.412Z,53
2016-11-18T17:10:10.424Z,53
2016-11-18T17:20:10.435Z,53
2016-11-18T17:30:10.394Z,53
2016-11-18T17:40:10.394Z,53
2016-11-18T17:50:10.436Z,53
2016-11-18T18:00:10.427Z,53.5
2016-11-18T18:10:10.446Z,53
2016-11-18T18:20:10.394Z,53
2016-11-18T18:30:10.426Z,53.5
2016-11-18T18:40:10.430Z,53
2016-11-18T18:50:10.452Z,53
2016-11-18T19:00:10.416Z,52.5
2016-11-18T19:10:01.912Z,53
2016-11-18T19:20:01.941Z,53
2016-11-18T19:30:10.425Z,51.9
2016-11-18T19:40:10.411Z,53
2016-11-18T19:50:10.457Z,52.5
2016-11-18T20:00:10.422Z,51.9
2016-11-18T20:10:10.422Z,52.5
2016-11-18T20:20:10.419Z,51.4
2016-11-18T20:30:10.434Z,51.9
2016-11-18T20:40:10.408Z,52.5
2016-11-18T20:50:10.446Z,51.9
2016-11-18T21:00:01.941Z,53
2016-11-18T21:10:10.396Z,51.9
2016-11-18T21:20:10.415Z,53
2016-11-18T21:30:10.449Z,53
2016-11-18T21:40:10.450Z,53
2016-11-18T21:50:10.408Z,53
2016-11-18T22:00:10.438Z,53
2016-11-18T22:10:02.139Z,53
2016-11-18T22:20:02.129Z,52.5
2016-11-18T22:30:02.154Z,53
2016-11-18T22:40:01.986Z,51.9
2016-11-18T22:50:10.419Z,52.5
2016-11-18T23:00:10.446Z,52.5
2016-11-18T23:10:10.417Z,52.5
2016-11-18T23:20:10.454Z,53
2016-11-18T23:30:10.420Z,51.9
2016-11-18T23:40:10.427Z,53
2016-11-18T23:50:02.146Z,51.9
